Time;durP1;ratioP1;P1;durP2;ratioP2;P2;SDS_P1;SDS_P2;PMS_P1;PMS_P2;Temp;Humidity;BMP_temperature;BMP_pressure;BME280_temperature;BME280_humidity;BME280_pressure;Samples;Min_cycle;Max_cycle;Signal;HPM_P1;HPM_P2
2021/09/13 00:01:19;;;;;;;5.32;2.65;;;13.70;99.90;;;;;;5041056;28;20033;-62
2021/09/13 00:03:45;;;;;;;8.20;2.70;;;13.70;99.90;;;;;;5041152;28;20030;-60
2021/09/13 00:06:10;;;;;;;7.88;2.75;;;13.60;99.90;;;;;;5043224;28;20388;-63
2021/09/13 00:08:36;;;;;;;5.03;2.42;;;13.60;99.90;;;;;;5041906;28;20512;-64
2021/09/13 00:11:01;;;;;;;6.65;2.13;;;13.60;99.90;;;;;;5041799;28;20379;-61
2021/09/13 00:13:27;;;;;;;4.93;1.98;;;13.50;99.90;;;;;;5043125;28;20099;-61
2021/09/13 00:15:53;;;;;;;5.15;2.40;;;13.50;99.90;;;;;;5040640;28;20496;-62
2021/09/13 00:18:18;;;;;;;3.67;2.45;;;13.50;99.90;;;;;;5044163;28;20033;-62
2021/09/13 00:20:44;;;;;;;3.95;2.55;;;13.50;99.90;;;;;;5040286;28;20451;-63
2021/09/13 00:23:10;;;;;;;5.10;2.63;;;13.40;99.90;;;;;;5043274;28;20032;-62
2021/09/13 00:25:35;;;;;;;5.47;2.70;;;13.40;99.90;;;;;;5041282;28;20149;-61
2021/09/13 00:28:01;;;;;;;7.18;2.40;;;13.40;99.90;;;;;;5041715;28;20060;-62
2021/09/13 00:30:26;;;;;;;3.80;2.50;;;13.30;99.90;;;;;;5042085;28;20091;-61
2021/09/13 00:32:52;;;;;;;4.35;2.28;;;13.30;99.90;;;;;;5041139;28;20559;-61
2021/09/13 00:35:18;;;;;;;3.40;2.25;;;13.30;99.90;;;;;;5042892;28;20091;-63
2021/09/13 00:37:43;;;;;;;4.43;2.15;;;13.30;99.90;;;;;;5040096;28;20120;-61
2021/09/13 00:40:10;;;;;;;3.35;2.03;;;13.20;99.90;;;;;;5045346;28;20022;-61
2021/09/13 00:42:35;;;;;;;3.95;2.53;;;13.20;99.90;;;;;;5042303;28;20386;-62
2021/09/13 00:45:02;;;;;;;6.57;2.78;;;13.20;99.90;;;;;;5041015;28;20033;-61
2021/09/13 00:47:28;;;;;;;5.38;2.72;;;13.20;99.90;;;;;;5039160;28;20116;-61
2021/09/13 00:49:54;;;;;;;4.00;2.72;;;13.20;99.90;;;;;;5049648;28;20201;-61
2021/09/13 00:52:20;;;;;;;3.58;2.20;;;13.10;99.90;;;;;;5044117;28;20037;-61
2021/09/13 00:54:47;;;;;;;6.22;2.10;;;13.10;99.90;;;;;;5047695;28;20107;-61
2021/09/13 00:57:13;;;;;;;3.10;2.10;;;13.10;99.90;;;;;;5042107;28;20033;-63
2021/09/13 00:59:39;;;;;;;5.43;2.40;;;13.00;99.90;;;;;;5038936;28;20037;-63
2021/09/13 01:02:05;;;;;;;6.00;2.70;;;13.00;99.90;;;;;;5041157;28;20032;-60
2021/09/13 01:04:31;;;;;;;3.88;2.35;;;13.00;99.90;;;;;;5040294;28;20029;-60
2021/09/13 01:06:56;;;;;;;4.50;2.40;;;13.00;99.90;;;;;;5040877;28;20026;-60
2021/09/13 01:09:22;;;;;;;4.80;2.65;;;13.00;99.90;;;;;;5041242;28;20500;-60
2021/09/13 01:11:49;;;;;;;4.72;2.53;;;13.00;99.90;;;;;;5039799;28;20139;-61
2021/09/13 01:14:19;;;;;;;5.65;2.60;;;13.00;99.90;;;;;;5042566;28;20404;-61
2021/09/13 01:16:45;;;;;;;7.68;3.47;;;13.00;99.90;;;;;;5039263;28;20524;-62
2021/09/13 01:19:11;;;;;;;4.10;2.58;;;12.90;99.90;;;;;;5042127;28;20516;-60
2021/09/13 01:21:39;;;;;;;4.57;2.88;;;12.90;99.90;;;;;;5046093;28;20029;-61
2021/09/13 01:24:06;;;;;;;5.47;2.78;;;12.90;99.90;;;;;;5038924;28;20060;-61
2021/09/13 01:26:31;;;;;;;4.18;2.53;;;12.90;99.90;;;;;;5039506;28;20044;-60
2021/09/13 01:28:57;;;;;;;4.55;2.50;;;12.90;99.90;;;;;;5041277;28;20029;-61
2021/09/13 01:31:23;;;;;;;4.32;2.42;;;12.90;99.90;;;;;;5040722;28;20377;-61
2021/09/13 01:33:49;;;;;;;4.95;2.63;;;12.90;99.90;;;;;;5039728;28;20120;-63
2021/09/13 01:36:14;;;;;;;6.45;2.85;;;12.90;99.90;;;;;;5037701;28;20160;-62
2021/09/13 01:38:40;;;;;;;4.25;2.50;;;12.80;99.90;;;;;;5042645;28;20090;-62
2021/09/13 01:41:06;;;;;;;3.88;2.45;;;12.80;99.90;;;;;;5041836;28;20548;-61
2021/09/13 01:43:31;;;;;;;7.63;3.40;;;12.80;99.90;;;;;;5041042;28;20119;-61
2021/09/13 01:45:57;;;;;;;5.05;2.90;;;12.80;99.90;;;;;;5039887;28;20064;-60
2021/09/13 01:48:23;;;;;;;4.88;2.45;;;12.80;99.90;;;;;;5039906;28;20037;-61
2021/09/13 01:50:48;;;;;;;4.68;2.80;;;12.80;99.90;;;;;;5041238;28;20045;-62
2021/09/13 01:53:14;;;;;;;6.68;3.53;;;12.80;99.90;;;;;;5039259;28;20037;-60
2021/09/13 01:55:40;;;;;;;6.47;2.58;;;12.80;99.90;;;;;;5045860;28;20086;-62
2021/09/13 01:58:05;;;;;;;8.77;3.13;;;12.80;99.90;;;;;;5039093;28;20493;-61
2021/09/13 02:00:31;;;;;;;6.68;2.97;;;12.80;99.90;;;;;;5040884;28;20057;-61
2021/09/13 02:02:56;;;;;;;7.15;2.90;;;12.80;99.90;;;;;;5039654;28;20052;-63
2021/09/13 02:05:22;;;;;;;5.43;2.70;;;12.80;99.90;;;;;;5039839;28;20065;-61
2021/09/13 02:07:48;;;;;;;6.10;3.42;;;12.90;99.90;;;;;;5040878;28;20033;-62
2021/09/13 02:10:13;;;;;;;5.80;3.03;;;12.80;99.90;;;;;;5042641;28;20037;-62
2021/09/13 02:12:39;;;;;;;5.18;2.35;;;12.80;99.90;;;;;;5037364;28;20045;-62
2021/09/13 02:15:05;;;;;;;7.28;2.60;;;12.80;99.90;;;;;;5041719;28;20119;-60
2021/09/13 02:17:30;;;;;;;6.10;2.58;;;12.80;99.90;;;;;;5038212;28;20036;-61
2021/09/13 02:19:56;;;;;;;5.28;2.45;;;12.80;99.90;;;;;;5040614;28;20022;-60
2021/09/13 02:22:21;;;;;;;8.50;2.55;;;12.80;99.90;;;;;;5039719;28;20037;-62
2021/09/13 02:24:47;;;;;;;5.82;2.10;;;12.80;99.90;;;;;;5039279;28;20026;-63
2021/09/13 02:27:12;;;;;;;5.22;2.53;;;12.80;99.90;;;;;;5041255;28;20068;-63
2021/09/13 02:29:38;;;;;;;3.60;2.13;;;12.80;99.90;;;;;;5037836;28;20033;-60
2021/09/13 02:32:04;;;;;;;4.45;1.80;;;12.80;99.90;;;;;;5040961;28;20025;-63
2021/09/13 02:34:30;;;;;;;4.75;2.15;;;12.70;99.90;;;;;;5038314;28;20132;-60
2021/09/13 02:36:55;;;;;;;4.40;2.03;;;12.70;99.90;;;;;;5040055;28;20120;-61
2021/09/13 02:39:21;;;;;;;5.45;2.00;;;12.70;99.90;;;;;;5042087;28;20033;-60
2021/09/13 02:41:47;;;;;;;2.42;1.40;;;12.70;99.90;;;;;;5040083;28;20025;-61
2021/09/13 02:44:12;;;;;;;3.80;1.33;;;12.70;99.90;;;;;;5020592;28;20033;-63
2021/09/13 02:46:38;;;;;;;2.85;1.67;;;12.70;99.90;;;;;;5040148;28;20044;-62
2021/09/13 02:49:03;;;;;;;5.82;2.20;;;12.70;99.90;;;;;;5037810;28;20057;-61
2021/09/13 02:51:29;;;;;;;3.10;1.45;;;12.70;99.90;;;;;;5040102;28;20580;-60
2021/09/13 02:53:54;;;;;;;3.45;1.73;;;12.60;99.90;;;;;;5038062;28;20060;-63
2021/09/13 02:56:20;;;;;;;4.32;1.40;;;12.60;99.90;;;;;;5041622;28;20037;-61
2021/09/13 02:58:46;;;;;;;4.72;1.92;;;12.60;99.90;;;;;;5039446;28;20040;-62
2021/09/13 03:01:12;;;;;;;3.15;1.50;;;12.60;99.90;;;;;;5037982;28;20079;-63
2021/09/13 03:03:38;;;;;;;4.05;1.58;;;12.60;99.90;;;;;;5037056;28;20585;-62
2021/09/13 03:06:04;;;;;;;3.75;1.58;;;12.60;99.90;;;;;;5041849;28;20128;-62
2021/09/13 03:08:29;;;;;;;2.22;1.48;;;12.60;99.90;;;;;;5039932;28;20056;-63
2021/09/13 03:10:55;;;;;;;3.78;1.67;;;12.60;99.90;;;;;;5038410;28;20032;-62
2021/09/13 03:13:20;;;;;;;2.47;1.38;;;12.70;99.90;;;;;;5039129;28;20528;-61
2021/09/13 03:15:46;;;;;;;3.40;1.50;;;12.70;99.90;;;;;;5021095;28;20040;-62
2021/09/13 03:18:11;;;;;;;5.15;2.08;;;12.70;99.90;;;;;;5037859;28;20112;-62
2021/09/13 03:20:37;;;;;;;2.53;1.23;;;12.70;99.90;;;;;;5040252;28;20033;-62
2021/09/13 03:23:03;;;;;;;2.83;1.58;;;12.70;99.90;;;;;;5037429;28;20026;-62
2021/09/13 03:25:29;;;;;;;4.25;1.70;;;12.70;99.90;;;;;;5040277;28;20048;-62
2021/09/13 03:27:55;;;;;;;6.10;1.98;;;12.70;99.90;;;;;;5037496;28;20118;-61
2021/09/13 03:30:20;;;;;;;3.25;1.88;;;12.70;99.90;;;;;;5038681;28;20029;-62
2021/09/13 03:32:46;;;;;;;3.53;1.80;;;12.70;99.90;;;;;;5038613;28;20033;-61
2021/09/13 03:35:12;;;;;;;3.38;1.65;;;12.70;99.90;;;;;;5037732;28;20032;-61
2021/09/13 03:37:38;;;;;;;3.17;1.98;;;12.80;99.90;;;;;;5039692;28;20059;-62
2021/09/13 03:40:04;;;;;;;6.10;2.22;;;12.80;99.90;;;;;;5037820;28;20091;-61
2021/09/13 03:42:30;;;;;;;4.32;1.63;;;12.80;99.90;;;;;;5040480;28;20060;-63
2021/09/13 03:44:55;;;;;;;4.30;1.65;;;12.80;99.90;;;;;;5037090;28;20732;-62
2021/09/13 03:47:21;;;;;;;5.32;1.90;;;12.80;99.90;;;;;;5038941;28;20430;-62
2021/09/13 03:49:46;;;;;;;4.47;2.03;;;12.70;99.90;;;;;;5038208;28;20037;-61
2021/09/13 03:52:12;;;;;;;3.83;1.42;;;12.70;99.90;;;;;;5041149;28;20068;-62
2021/09/13 03:54:38;;;;;;;3.80;2.10;;;12.70;99.90;;;;;;5042236;28;20029;-62
2021/09/13 03:57:05;;;;;;;2.63;1.67;;;12.70;99.90;;;;;;5036424;28;20076;-62
2021/09/13 03:59:31;;;;;;;5.72;2.25;;;12.70;99.90;;;;;;5036674;28;20384;-62
2021/09/13 04:01:58;;;;;;;3.63;1.67;;;12.70;99.90;;;;;;5039652;28;20542;-61
2021/09/13 04:04:27;;;;;;;7.25;2.03;;;12.60;99.90;;;;;;5022474;28;20026;-61
2021/09/13 04:07:01;;;;;;;3.08;1.80;;;12.60;99.90;;;;;;5037317;28;20392;-62
2021/09/13 04:11:57;;;;;;;3.53;1.73;;;12.60;99.90;;;;;;5036511;28;20087;-61
2021/09/13 04:14:25;;;;;;;6.40;1.73;;;12.60;99.90;;;;;;5039364;28;20037;-62
2021/09/13 04:16:52;;;;;;;4.47;2.08;;;12.60;99.90;;;;;;5037187;28;20051;-62
2021/09/13 04:19:18;;;;;;;2.63;1.70;;;12.60;99.90;;;;;;5038613;28;20047;-64
2021/09/13 04:21:45;;;;;;;4.13;1.67;;;12.50;99.90;;;;;;5038742;28;20044;-62
2021/09/13 04:24:11;;;;;;;4.75;2.22;;;12.50;99.90;;;;;;5037298;28;20112;-62
2021/09/13 04:26:36;;;;;;;4.75;2.10;;;12.50;99.90;;;;;;5039080;28;20113;-62
2021/09/13 04:29:02;;;;;;;5.60;2.45;;;12.50;99.90;;;;;;5036178;28;20485;-61
2021/09/13 04:31:28;;;;;;;3.78;2.05;;;12.50;99.90;;;;;;5038171;28;20041;-63
2021/09/13 04:33:54;;;;;;;5.50;2.10;;;12.50;99.90;;;;;;5034345;28;20056;-63
2021/09/13 04:36:20;;;;;;;3.78;2.03;;;12.50;99.90;;;;;;5037408;28;20048;-63
2021/09/13 04:38:46;;;;;;;3.60;1.55;;;12.40;99.90;;;;;;5041167;28;20061;-62
2021/09/13 04:41:13;;;;;;;5.82;2.35;;;12.40;99.90;;;;;;5047651;28;20059;-62
2021/09/13 04:43:38;;;;;;;6.47;2.00;;;12.40;99.90;;;;;;5042820;28;20052;-62
2021/09/13 04:46:04;;;;;;;5.60;2.30;;;12.50;99.90;;;;;;5039865;28;20481;-62
2021/09/13 04:48:30;;;;;;;6.68;2.13;;;12.50;99.90;;;;;;5041392;28;20527;-62
2021/09/13 04:50:55;;;;;;;3.80;1.98;;;12.50;99.90;;;;;;5040064;28;20045;-62
2021/09/13 04:53:21;;;;;;;4.43;1.63;;;12.50;99.90;;;;;;5042081;28;20032;-62
2021/09/13 04:55:47;;;;;;;6.90;2.38;;;12.60;99.90;;;;;;5038377;28;20025;-62
2021/09/13 04:58:13;;;;;;;8.63;2.22;;;12.60;99.90;;;;;;5041598;28;20222;-62
2021/09/13 05:00:39;;;;;;;8.40;2.25;;;12.60;99.90;;;;;;5040589;28;20099;-62
2021/09/13 05:03:05;;;;;;;3.47;1.95;;;12.60;99.90;;;;;;5048702;28;20076;-62
2021/09/13 05:05:31;;;;;;;5.20;2.10;;;12.60;99.90;;;;;;5049554;28;20064;-62
2021/09/13 05:07:56;;;;;;;7.03;2.25;;;12.60;99.90;;;;;;5030127;28;20029;-61
2021/09/13 05:10:22;;;;;;;3.03;1.85;;;12.60;99.90;;;;;;5045842;28;20046;-62
2021/09/13 05:12:47;;;;;;;6.13;2.00;;;12.60;99.90;;;;;;5047077;28;20029;-62
2021/09/13 05:15:13;;;;;;;4.35;2.28;;;12.70;99.90;;;;;;5049350;28;20132;-62
2021/09/13 05:17:39;;;;;;;7.20;2.10;;;12.70;99.90;;;;;;5050627;28;20420;-62
2021/09/13 05:20:05;;;;;;;5.43;1.98;;;12.70;99.90;;;;;;5044537;28;20033;-61
2021/09/13 05:22:31;;;;;;;4.65;2.28;;;12.70;99.90;;;;;;5050244;28;20656;-63
2021/09/13 05:24:56;;;;;;;6.93;2.50;;;12.80;99.90;;;;;;5047196;28;20036;-63
2021/09/13 05:27:22;;;;;;;4.88;1.95;;;12.80;99.90;;;;;;5048689;28;20033;-62
2021/09/13 05:29:48;;;;;;;5.75;2.20;;;12.80;99.90;;;;;;5049258;28;20399;-62
2021/09/13 05:32:13;;;;;;;4.70;2.10;;;12.80;99.90;;;;;;5048691;28;20032;-62
2021/09/13 05:34:39;;;;;;;3.15;1.80;;;12.80;99.90;;;;;;5048321;28;20098;-61
2021/09/13 05:37:05;;;;;;;3.53;1.98;;;12.80;99.90;;;;;;5047862;28;20033;-62
2021/09/13 05:39:30;;;;;;;6.38;1.98;;;12.80;99.90;;;;;;5050901;28;20464;-62
2021/09/13 05:41:56;;;;;;;3.08;1.90;;;12.80;99.90;;;;;;5048503;28;20032;-62
2021/09/13 05:44:22;;;;;;;2.88;1.80;;;12.80;99.90;;;;;;5047650;28;20083;-62
2021/09/13 05:46:48;;;;;;;4.15;2.13;;;12.80;99.90;;;;;;5045918;28;20029;-62
2021/09/13 05:49:14;;;;;;;7.03;2.22;;;12.80;99.90;;;;;;5045196;28;20029;-62
2021/09/13 05:51:51;;;;;;;4.70;2.00;;;12.70;99.90;;;;;;5046553;28;20055;-61
2021/09/13 05:54:25;;;;;;;7.88;1.83;;;12.80;99.90;;;;;;5030303;28;20041;-62
2021/09/13 05:56:52;;;;;;;4.65;2.38;;;12.70;99.90;;;;;;5030808;28;20045;-61
2021/09/13 05:59:20;;;;;;;3.90;2.13;;;12.80;99.90;;;;;;5048401;28;20033;-62
2021/09/13 06:01:45;;;;;;;3.80;2.42;;;12.80;99.90;;;;;;5047578;28;20510;-61
2021/09/13 06:04:11;;;;;;;8.90;2.95;;;12.80;99.90;;;;;;5052233;28;20041;-61
2021/09/13 06:06:37;;;;;;;6.22;2.90;;;12.90;99.90;;;;;;5048482;28;20043;-61
2021/09/13 06:09:02;;;;;;;4.85;2.40;;;12.90;99.90;;;;;;5050480;28;20064;-62
2021/09/13 06:11:28;;;;;;;7.35;2.75;;;13.00;99.90;;;;;;5051192;28;20586;-62
2021/09/13 06:13:54;;;;;;;4.68;2.60;;;13.10;99.90;;;;;;5049456;28;20031;-61
2021/09/13 06:16:21;;;;;;;5.45;2.40;;;13.10;99.90;;;;;;5051217;28;20035;-61
2021/09/13 06:18:46;;;;;;;4.82;2.25;;;13.20;99.90;;;;;;5033438;28;20025;-62
2021/09/13 06:21:12;;;;;;;8.23;2.45;;;13.30;99.90;;;;;;5051176;28;20057;-62
2021/09/13 06:23:37;;;;;;;8.55;2.60;;;13.40;99.90;;;;;;5050873;28;20045;-62
2021/09/13 06:26:03;;;;;;;4.57;2.42;;;13.50;99.90;;;;;;5051906;28;20036;-61
2021/09/13 06:28:29;;;;;;;7.97;2.55;;;13.60;99.90;;;;;;5052685;28;20045;-62
2021/09/13 06:30:55;;;;;;;7.65;2.30;;;13.70;99.90;;;;;;5053416;28;20071;-62
2021/09/13 06:33:20;;;;;;;6.38;2.67;;;13.80;99.90;;;;;;5060214;28;20040;-62
2021/09/13 06:35:46;;;;;;;7.85;2.88;;;13.90;99.90;;;;;;5052895;28;20045;-62
2021/09/13 06:38:12;;;;;;;4.10;2.08;;;14.00;99.90;;;;;;5051669;28;20036;-62
2021/09/13 06:40:38;;;;;;;6.57;2.33;;;14.30;99.90;;;;;;5050844;28;20140;-62
2021/09/13 06:43:03;;;;;;;4.57;2.38;;;14.40;99.90;;;;;;5050977;28;20523;-62
2021/09/13 06:45:39;;;;;;;4.88;2.83;;;14.70;99.90;;;;;;5048191;28;20033;-62
2021/09/13 06:48:04;;;;;;;8.40;2.50;;;14.90;99.90;;;;;;5050134;28;20025;-61
2021/09/13 06:50:30;;;;;;;8.85;2.08;;;15.10;99.90;;;;;;5048660;28;20048;-61
2021/09/13 06:52:56;;;;;;;8.38;2.40;;;15.30;99.90;;;;;;5050508;28;20036;-61
2021/09/13 06:55:22;;;;;;;11.65;3.05;;;15.50;99.90;;;;;;5047770;28;20029;-61
2021/09/13 06:57:49;;;;;;;3.65;2.33;;;15.60;99.90;;;;;;5049980;28;20051;-61
2021/09/13 07:00:17;;;;;;;5.55;2.28;;;15.60;99.90;;;;;;5049551;28;20029;-61
2021/09/13 07:02:44;;;;;;;11.68;2.42;;;15.60;99.90;;;;;;5050685;28;20041;-62
2021/09/13 07:05:11;;;;;;;4.65;2.15;;;15.60;99.90;;;;;;5048762;28;20029;-62
2021/09/13 07:07:37;;;;;;;9.63;2.60;;;15.60;99.90;;;;;;5051444;28;20040;-61
2021/09/13 07:10:06;;;;;;;7.15;2.25;;;15.60;99.90;;;;;;5048947;28;20113;-61
2021/09/13 07:12:32;;;;;;;7.50;2.58;;;15.70;99.90;;;;;;5051412;28;20020;-61
2021/09/13 07:14:58;;;;;;;7.05;2.85;;;15.70;99.90;;;;;;5049020;28;20044;-61
2021/09/13 07:17:24;;;;;;;6.88;2.80;;;15.70;99.90;;;;;;5049345;28;20025;-61
2021/09/13 07:19:51;;;;;;;8.73;2.80;;;15.80;99.90;;;;;;5048332;28;20029;-62
2021/09/13 07:22:18;;;;;;;7.70;2.40;;;15.90;99.90;;;;;;5049958;28;20033;-62
2021/09/13 07:24:44;;;;;;;6.45;2.60;;;16.00;99.90;;;;;;5049167;28;20044;-61
2021/09/13 07:27:11;;;;;;;7.00;2.55;;;16.00;99.90;;;;;;5049058;28;20091;-61
2021/09/13 07:29:36;;;;;;;6.85;2.80;;;16.10;99.90;;;;;;5048340;28;20460;-61
2021/09/13 07:32:02;;;;;;;8.07;2.60;;;16.10;99.90;;;;;;5051136;28;20136;-61
2021/09/13 07:34:29;;;;;;;6.13;2.53;;;16.10;99.90;;;;;;5048791;28;20033;-62
2021/09/13 07:36:56;;;;;;;7.38;2.60;;;16.20;99.90;;;;;;5047004;28;20090;-61
2021/09/13 07:39:26;;;;;;;6.03;2.25;;;16.20;99.90;;;;;;5048656;28;20037;-61
2021/09/13 07:41:52;;;;;;;6.05;2.05;;;16.20;99.90;;;;;;5047055;28;20055;-61
2021/09/13 07:44:17;;;;;;;7.15;2.20;;;16.40;99.90;;;;;;5050389;28;20493;-61
2021/09/13 07:46:44;;;;;;;9.63;2.55;;;16.50;99.90;;;;;;5028782;28;20028;-61
2021/09/13 07:49:09;;;;;;;11.07;2.80;;;16.70;99.90;;;;;;5051650;28;20056;-61
2021/09/13 07:51:35;;;;;;;4.32;2.25;;;16.90;99.90;;;;;;5046947;28;20453;-61
2021/09/13 07:54:01;;;;;;;6.85;2.00;;;17.00;99.90;;;;;;5048581;28;20044;-61
2021/09/13 07:56:27;;;;;;;4.93;2.17;;;17.10;99.90;;;;;;5049817;28;20060;-61
2021/09/13 07:58:54;;;;;;;6.53;2.22;;;17.20;99.90;;;;;;5051417;28;20026;-61
2021/09/13 08:01:19;;;;;;;6.43;2.60;;;17.30;99.90;;;;;;5048830;28;20557;-61
2021/09/13 08:03:45;;;;;;;5.38;1.63;;;17.40;99.90;;;;;;5030040;28;20132;-61
2021/09/13 08:06:10;;;;;;;5.35;1.65;;;17.40;99.90;;;;;;5047760;28;20120;-62
2021/09/13 08:08:36;;;;;;;3.03;1.58;;;17.50;99.90;;;;;;5051658;28;20037;-61
2021/09/13 08:11:03;;;;;;;5.75;1.90;;;17.60;99.90;;;;;;5047492;28;20427;-61
2021/09/13 08:13:29;;;;;;;4.05;1.40;;;17.60;99.90;;;;;;5052668;28;20041;-61
2021/09/13 08:15:54;;;;;;;4.00;1.58;;;17.70;99.90;;;;;;5044662;28;20025;-61
2021/09/13 08:18:20;;;;;;;4.80;1.83;;;17.80;99.90;;;;;;5053841;28;20025;-61
2021/09/13 08:20:46;;;;;;;3.50;1.65;;;18.00;99.90;;;;;;5050818;28;20025;-61
2021/09/13 08:23:11;;;;;;;2.78;1.50;;;18.00;99.90;;;;;;5051109;28;20037;-61
2021/09/13 08:25:37;;;;;;;2.42;1.40;;;18.00;99.90;;;;;;5049747;28;20018;-61
2021/09/13 08:28:03;;;;;;;6.10;1.70;;;18.00;99.90;;;;;;5053964;28;20025;-61
2021/09/13 08:30:28;;;;;;;2.85;1.17;;;18.10;99.90;;;;;;5050852;28;20488;-61
2021/09/13 08:32:54;;;;;;;4.70;1.40;;;18.00;99.90;;;;;;5054214;28;20052;-61
2021/09/13 08:35:20;;;;;;;6.78;1.77;;;18.00;99.90;;;;;;5050318;28;20132;-62
2021/09/13 08:37:46;;;;;;;3.20;1.40;;;17.90;99.90;;;;;;5053432;28;20097;-61
2021/09/13 08:40:12;;;;;;;3.28;1.60;;;17.90;99.90;;;;;;5052113;28;20055;-61
2021/09/13 08:42:45;;;;;;;4.25;1.85;;;17.90;99.90;;;;;;5051725;28;20492;-61
2021/09/13 08:45:16;;;;;;;4.30;1.63;;;18.00;99.90;;;;;;5049734;28;20029;-61
2021/09/13 08:47:53;;;;;;;3.38;1.58;;;18.00;99.90;;;;;;5053413;28;20066;-61
2021/09/13 08:51:05;;;;;;;1.60;0.50;;;18.20;99.90;;;;;;5052211;28;20047;-61
2021/09/13 08:53:10;;;;;;;2.90;1.05;;;18.40;99.90;;;;;;5038353;28;20051;-61
2021/09/13 08:55:35;;;;;;;6.03;1.02;;;18.60;99.90;;;;;;5047759;28;20029;-61
2021/09/13 08:58:01;;;;;;;3.22;1.10;;;18.70;99.90;;;;;;5052779;28;20503;-61
2021/09/13 09:00:30;;;;;;;5.15;0.95;;;18.80;99.90;;;;;;5050728;28;20057;-61
2021/09/13 09:02:59;;;;;;;2.05;0.88;;;19.00;99.90;;;;;;5053395;28;20124;-61
2021/09/13 09:05:24;;;;;;;3.80;0.70;;;19.10;99.90;;;;;;5049763;28;20033;-60
2021/09/13 09:07:54;;;;;;;3.15;0.45;;;19.30;99.90;;;;;;5052716;28;20373;-64
2021/09/13 09:10:26;;;;;;;0.82;0.28;;;19.30;99.90;;;;;;5049590;28;20032;-61
2021/09/13 09:12:56;;;;;;;1.98;0.25;;;19.20;99.90;;;;;;5050787;28;20028;-61
2021/09/13 09:15:22;;;;;;;0.80;0.30;;;19.40;99.90;;;;;;5031896;28;20037;-61
2021/09/13 09:17:53;;;;;;;2.38;0.38;;;19.50;99.90;;;;;;5049427;28;20495;-60
2021/09/13 09:20:19;;;;;;;4.20;0.80;;;19.60;99.90;;;;;;5049954;28;20044;-63
2021/09/13 09:22:46;;;;;;;2.47;0.32;;;19.60;99.90;;;;;;5050091;28;20544;-60
2021/09/13 09:25:29;;;;;;;3.20;0.30;;;19.60;99.90;;;;;;5049705;28;20087;-60
2021/09/13 09:28:01;;;;;;;2.40;0.60;;;19.70;99.90;;;;;;5029169;28;20048;-61
2021/09/13 09:30:38;;;;;;;1.77;0.40;;;19.70;99.90;;;;;;5048690;28;20032;-62
2021/09/13 09:33:10;;;;;;;1.75;0.32;;;19.70;99.90;;;;;;5048272;28;20103;-60
2021/09/13 09:35:52;;;;;;;1.90;0.52;;;19.70;99.90;;;;;;5049828;28;20484;-60
2021/09/13 09:41:44;;;;;;;0.50;0.22;;;19.40;99.90;;;;;;5050294;28;20055;-61
2021/09/13 09:44:10;;;;;;;2.40;0.55;;;19.30;99.90;;;;;;5042067;28;20045;-63
2021/09/13 09:46:42;;;;;;;1.90;0.28;;;19.20;99.90;;;;;;5032173;28;20369;-60
2021/09/13 09:49:10;;;;;;;0.70;0.40;;;19.10;99.90;;;;;;5042619;28;20224;-61
2021/09/13 09:51:58;;;;;;;1.23;0.10;;;19.00;99.90;;;;;;5049919;28;20036;-61
2021/09/13 09:54:25;;;;;;;0.68;0.10;;;19.00;99.90;;;;;;5043298;28;20044;-61
2021/09/13 09:57:00;;;;;;;0.50;0.10;;;19.00;99.90;;;;;;5024043;28;20029;-61
2021/09/13 09:59:35;;;;;;;2.05;0.20;;;19.00;99.90;;;;;;5047178;28;20056;-61
2021/09/13 10:02:14;;;;;;;2.10;0.20;;;19.00;99.90;;;;;;5022700;28;20401;-61
2021/09/13 10:04:41;;;;;;;0.57;0.10;;;19.10;99.90;;;;;;5044056;28;20064;-63
2021/09/13 10:07:11;;;;;;;1.90;0.28;;;19.10;99.90;;;;;;5048167;28;20037;-60
2021/09/13 10:09:37;;;;;;;2.15;0.38;;;19.20;99.90;;;;;;5047434;28;20036;-61
2021/09/13 10:12:06;;;;;;;1.48;0.38;;;19.40;99.90;;;;;;5047292;28;20119;-62
2021/09/13 10:14:33;;;;;;;0.30;0.10;;;19.50;99.90;;;;;;5046199;28;20132;-62
2021/09/13 10:16:59;;;;;;;1.02;0.08;;;19.70;99.90;;;;;;5046471;28;20032;-61
2021/09/13 10:19:27;;;;;;;0.90;0.15;;;19.90;99.90;;;;;;5047523;28;20045;-60
2021/09/13 10:21:53;;;;;;;1.13;0.00;;;20.00;99.90;;;;;;5029878;28;20083;-63
2021/09/13 10:24:21;;;;;;;2.05;0.32;;;20.30;99.90;;;;;;5045912;28;20098;-61
2021/09/13 10:26:50;;;;;;;0.20;0.10;;;20.50;99.90;;;;;;5046347;28;20654;-61
2021/09/13 10:29:22;;;;;;;1.70;0.52;;;20.60;99.90;;;;;;5048429;28;20045;-63
2021/09/13 10:31:47;;;;;;;1.38;0.20;;;20.60;99.90;;;;;;5046099;28;20040;-62
2021/09/13 10:34:27;;;;;;;0.30;0.10;;;20.70;99.90;;;;;;5049615;28;20041;-61
2021/09/13 10:36:59;;;;;;;0.70;0.35;;;20.70;99.90;;;;;;5047574;28;20088;-63
2021/09/13 10:40:02;;;;;;;1.35;0.25;;;20.80;99.90;;;;;;5045754;28;20040;-61
2021/09/13 10:42:44;;;;;;;0.20;0.08;;;20.90;99.90;;;;;;5049363;28;20041;-61
2021/09/13 10:45:10;;;;;;;0.68;0.13;;;20.90;99.90;;;;;;5044023;28;20029;-62
2021/09/13 10:47:37;;;;;;;0.75;0.00;;;20.90;99.90;;;;;;5046824;28;20038;-60
2021/09/13 10:50:30;;;;;;;3.10;0.10;;;20.90;99.90;;;;;;5047531;28;20045;-60
2021/09/13 10:52:57;;;;;;;0.52;0.25;;;20.70;99.90;;;;;;5052030;28;20040;-61
2021/09/13 10:55:41;;;;;;;1.27;0.00;;;20.70;99.90;;;;;;5047110;28;20029;-60
2021/09/13 10:58:17;;;;;;;0.90;0.17;;;20.60;99.90;;;;;;5030538;28;20615;-61
2021/09/13 11:03:23;;;;;;;1.27;0.10;;;20.50;99.90;;;;;;5048696;28;20388;-61
2021/09/13 11:06:17;;;;;;;2.13;0.10;;;20.50;99.90;;;;;;5045168;28;20044;-60
2021/09/13 11:08:59;;;;;;;0.35;0.10;;;20.50;99.90;;;;;;5046692;28;20040;-61
2021/09/13 11:11:27;;;;;;;1.05;0.20;;;20.50;99.90;;;;;;5045417;28;20032;-61
2021/09/13 11:14:07;;;;;;;2.50;0.65;;;20.50;99.90;;;;;;5050648;28;20025;-63
2021/09/13 11:16:36;;;;;;;0.32;0.10;;;20.50;99.90;;;;;;5047418;28;20035;-65
2021/09/13 11:19:08;;;;;;;1.15;0.20;;;20.60;99.90;;;;;;5048069;28;20030;-64
2021/09/13 11:21:35;;;;;;;1.85;0.22;;;20.50;99.90;;;;;;5045325;28;20507;-62
2021/09/13 11:24:03;;;;;;;0.25;0.00;;;20.50;99.90;;;;;;5050374;28;20066;-60
2021/09/13 11:26:42;;;;;;;0.10;0.00;;;20.40;99.90;;;;;;5048340;28;20045;-60
2021/09/13 11:29:13;;;;;;;0.00;0.00;;;20.40;99.90;;;;;;5027652;28;20127;-61
2021/09/13 11:31:43;;;;;;;0.10;0.00;;;20.40;99.90;;;;;;5048721;28;20087;-61
2021/09/13 11:34:14;;;;;;;0.13;0.10;;;20.30;99.90;;;;;;5051383;28;20063;-64
2021/09/13 11:36:49;;;;;;;0.82;0.03;;;20.30;99.90;;;;;;5044292;28;20032;-59
2021/09/13 11:39:15;;;;;;;0.20;0.00;;;20.30;99.90;;;;;;5045794;28;20060;-63
2021/09/13 11:41:51;;;;;;;1.95;0.10;;;20.20;99.90;;;;;;5030427;28;20270;-61
2021/09/13 11:44:17;;;;;;;0.10;0.00;;;20.10;99.90;;;;;;5045745;28;20039;-64
2021/09/13 11:47:01;;;;;;;0.90;0.08;;;20.10;99.90;;;;;;5046919;28;20033;-62
2021/09/13 11:49:35;;;;;;;0.45;0.10;;;20.10;99.90;;;;;;5050853;28;20032;-60
2021/09/13 11:52:02;;;;;;;0.20;0.00;;;20.00;99.90;;;;;;5051481;28;20041;-62
2021/09/13 11:54:29;;;;;;;0.73;0.20;;;20.00;99.90;;;;;;5051150;28;20037;-61
2021/09/13 11:56:54;;;;;;;3.58;0.22;;;19.90;99.90;;;;;;5053297;28;20173;-60
2021/09/13 11:59:21;;;;;;;1.45;0.20;;;19.90;99.90;;;;;;5050243;28;20119;-64
2021/09/13 12:02:03;;;;;;;0.25;0.08;;;19.80;99.90;;;;;;5053089;28;20029;-62
2021/09/13 12:04:29;;;;;;;1.02;0.40;;;19.90;99.90;;;;;;5048241;28;20132;-66
2021/09/13 12:07:09;;;;;;;0.45;0.13;;;20.00;99.90;;;;;;5030674;28;20039;-60
2021/09/13 12:09:37;;;;;;;1.40;0.10;;;20.00;99.90;;;;;;5048100;28;20120;-61
2021/09/13 12:12:04;;;;;;;0.95;0.10;;;20.10;99.90;;;;;;5050142;28;20053;-62
2021/09/13 12:14:31;;;;;;;0.32;0.00;;;20.10;99.90;;;;;;5052821;28;20501;-61
2021/09/13 12:17:13;;;;;;;0.20;0.20;;;20.30;99.90;;;;;;5031663;28;20489;-63
2021/09/13 12:19:42;;;;;;;1.83;0.10;;;20.40;99.90;;;;;;5048213;28;20069;-62
2021/09/13 12:22:09;;;;;;;0.10;0.10;;;20.30;99.90;;;;;;5050733;28;20116;-61
2021/09/13 12:24:36;;;;;;;1.15;0.20;;;20.30;99.90;;;;;;5052222;28;20613;-63
2021/09/13 12:27:16;;;;;;;1.10;0.30;;;20.20;99.90;;;;;;5028915;28;20386;-60
2021/09/13 12:29:53;;;;;;;2.47;0.30;;;20.30;99.90;;;;;;5030650;28;20029;-61
2021/09/13 12:32:28;;;;;;;0.63;0.30;;;20.30;99.90;;;;;;5052936;28;20051;-60
2021/09/13 12:34:56;;;;;;;1.25;0.30;;;20.30;99.90;;;;;;5050769;28;20029;-60
2021/09/13 12:37:27;;;;;;;1.08;0.10;;;20.40;99.90;;;;;;5049245;28;20051;-64
2021/09/13 12:40:11;;;;;;;3.05;0.43;;;20.40;99.90;;;;;;5025367;28;20061;-61
2021/09/13 12:42:57;;;;;;;0.50;0.10;;;20.30;99.90;;;;;;5048278;28;20090;-61
2021/09/13 12:45:29;;;;;;;0.75;0.10;;;20.30;99.90;;;;;;5049892;28;20037;-61
2021/09/13 12:47:59;;;;;;;1.65;0.20;;;20.30;99.90;;;;;;5049448;28;20576;-61
2021/09/13 12:50:34;;;;;;;1.08;0.20;;;20.30;99.90;;;;;;5052841;28;20037;-62
2021/09/13 12:53:02;;;;;;;1.23;0.20;;;20.40;99.90;;;;;;5048042;28;20052;-61
2021/09/13 12:55:31;;;;;;;2.05;0.28;;;20.40;99.90;;;;;;5050612;28;20017;-63
2021/09/13 12:57:57;;;;;;;12.13;0.70;;;20.40;99.90;;;;;;5047324;28;20365;-64